»·PEaware :: N32314 KSBD-KEMT

N32314 :: KSBD-KEMT

FLIGHT INFORMATION

Flight Status: Arrived
Operator: Privately registered:
United States
More flights under this callsign
Pilot: John O. (31453)
Aircraft: CESSNA 172 SKYHAWK
(C172)
More flights by this aircraft type
Origin: KSBD San Bernardino Intl
United States
Destination: KEMT El Monte
United States
More flights between these airports :: More routes between these airports
Route: +DIRECT
File this flight plan on PilotEdge
Remarks:
Altitude:
(Current/Filed)
4,500ft
Speed:
(Current/Filed)
110kts
Departed: 24-Sep-20 09:06 AM
Arrived: 24-Sep-20 09:34 AM
Distance/Time
Traveled:
130nm/0:28
Distance/Time
To Go:
Arrived

Flight Plot

Page will automatically refresh every two minutes.


Map Options




Map Legend


Flown Route
Filed Route
Departure Airport
Arrival Airport
Navaid (VOR, NDB)
Fix

Horizontal Profiles

Position Reports

Time Latitude Longitude Heading Altitude Ground
Speed
24-Sep-20 08:38 34.101642 -117.225117 270 1153ft 0kts
24-Sep-20 08:39 34.101642 -117.225117 270 1153ft 0kts
24-Sep-20 08:40 34.101642 -117.225117 270 1153ft 0kts
24-Sep-20 08:41 34.101642 -117.225117 270 1153ft 0kts
24-Sep-20 08:42 34.101642 -117.225117 270 1153ft 0kts
24-Sep-20 08:43 34.101642 -117.225117 270 1153ft 0kts
24-Sep-20 08:44 34.101642 -117.225117 270 1153ft 0kts
24-Sep-20 08:45 34.101642 -117.225117 270 1153ft 0kts
24-Sep-20 08:46 34.101642 -117.225117 270 1153ft 0kts
24-Sep-20 08:47 34.101642 -117.225117 270 1153ft 0kts
24-Sep-20 08:48 34.101642 -117.225117 270 1153ft 0kts
24-Sep-20 08:49 34.101642 -117.225117 270 1153ft 0kts
24-Sep-20 08:50 34.101642 -117.225117 270 1153ft 0kts
24-Sep-20 08:51 34.101642 -117.225117 270 1153ft 0kts
24-Sep-20 08:52 34.101642 -117.225117 270 1153ft 0kts
24-Sep-20 08:53 34.101642 -117.225117 270 1153ft 0kts
24-Sep-20 08:54 34.101642 -117.225117 270 1153ft 0kts
24-Sep-20 08:55 34.101642 -117.225117 270 1153ft 0kts
24-Sep-20 08:56 34.101642 -117.225117 270 1153ft 0kts
24-Sep-20 08:57 34.101642 -117.225117 270 1153ft 0kts
24-Sep-20 08:58 34.100436 -117.226273 207 1148ft 15kts
24-Sep-20 08:59 34.098583 -117.230307 250 1138ft 20kts
24-Sep-20 09:00 34.096560 -117.237124 250 1122ft 20kts
24-Sep-20 09:01 34.094685 -117.243458 250 1102ft 18kts
24-Sep-20 09:02 34.093331 -117.248119 250 1095ft 14kts
24-Sep-20 09:03 34.091574 -117.250833 162 1086ft 0kts
24-Sep-20 09:04 34.091574 -117.250833 162 1086ft 0kts
24-Sep-20 09:05 34.091563 -117.247707 70 1093ft 48kts
24-Sep-20 09:06 34.097997 -117.224814 70 1627ft 76kts
24-Sep-20 09:07 34.110021 -117.227524 261 2152ft 89kts
24-Sep-20 09:08 34.097267 -117.255735 255 2459ft 112kts
24-Sep-20 09:09 34.095182 -117.291636 276 2378ft 104kts
24-Sep-20 09:10 34.099810 -117.325112 257 2227ft 99kts
24-Sep-20 09:11 34.096169 -117.358725 281 2088ft 101kts
24-Sep-20 09:12 34.101606 -117.387020 219 1949ft 95kts
24-Sep-20 09:13 34.098199 -117.414610 270 2139ft 64kts
24-Sep-20 09:14 34.096816 -117.437945 258 2564ft 71kts
24-Sep-20 09:15 34.093134 -117.463783 270 2522ft 93kts
24-Sep-20 09:16 34.092829 -117.493772 265 2979ft 80kts
24-Sep-20 09:17 34.092111 -117.520052 273 3734ft 72kts
24-Sep-20 09:18 34.092476 -117.543259 268 4425ft 53kts
24-Sep-20 09:19 34.092107 -117.570607 269 4438ft 101kts
24-Sep-20 09:20 34.091662 -117.605967 269 4446ft 107kts
24-Sep-20 09:21 34.091243 -117.641879 269 4444ft 107kts
24-Sep-20 09:22 34.092576 -117.678011 279 4443ft 107kts
24-Sep-20 09:23 34.092839 -117.713566 259 4437ft 108kts
24-Sep-20 09:24 34.090229 -117.749591 267 4453ft 107kts
24-Sep-20 09:25 34.090743 -117.785617 272 4462ft 107kts
24-Sep-20 09:26 34.091313 -117.821807 271 4456ft 108kts
24-Sep-20 09:27 34.093379 -117.857650 286 4444ft 108kts
24-Sep-20 09:28 34.101057 -117.892424 278 4355ft 109kts
24-Sep-20 09:29 34.101981 -117.928542 276 3997ft 108kts
24-Sep-20 09:30 34.104506 -117.964398 274 3494ft 103kts
24-Sep-20 09:31 34.110394 -117.999778 297 2001ft 116kts
24-Sep-20 09:32 34.102321 -118.026180 205 756ft 87kts
24-Sep-20 09:33 34.086486 -118.034591 199 294ft 28kts
24-Sep-20 09:34 34.084810 -118.034489 104 291ft 10kts
24-Sep-20 09:35 34.084630 -118.034196 208 291ft 0kts
24-Sep-20 09:36 34.084630 -118.034196 208 291ft 0kts
24-Sep-20 09:37 34.084630 -118.034196 208 291ft 0kts
24-Sep-20 09:38 34.084630 -118.034196 208 291ft 0kts
24-Sep-20 09:39 34.084630 -118.034196 208 291ft 0kts
24-Sep-20 09:40 34.084630 -118.034196 208 291ft 0kts
24-Sep-20 09:41 34.084630 -118.034196 208 291ft 0kts
24-Sep-20 09:42 34.084630 -118.034196 208 291ft 0kts
24-Sep-20 09:43 34.084630 -118.034196 208 291ft 0kts
24-Sep-20 09:44 34.084630 -118.034196 208 291ft 0kts
24-Sep-20 09:45 34.422619 -119.836444 164 11ft 0kts
24-Sep-20 09:46 34.422619 -119.836444 164 16ft 0kts
24-Sep-20 09:47 34.422619 -119.836444 164 16ft 0kts

Navigation Log

Ident Type
Flight plan parsing failed, navigation log unavailable